sensor_id;sensor_type;location;lat;lon;timestamp;pressure;altitude;pressure_sealevel;temperature;humidity
45763;BME280;37512;52.408;13.356;2023-02-04T00:03:31;70141.72;;;-146.77;100.00
45763;BME280;37512;52.408;13.356;2023-02-04T00:07:33;70141.72;;;-146.77;100.00
45763;BME280;37512;52.408;13.356;2023-02-04T00:11:34;70141.72;;;-146.77;100.00
45763;BME280;37512;52.408;13.356;2023-02-04T00:15:35;70141.72;;;-146.77;100.00
45763;BME280;37512;52.408;13.356;2023-02-04T00:19:40;70141.72;;;-146.77;100.00
45763;BME280;37512;52.408;13.356;2023-02-04T00:23:42;70141.72;;;-146.77;100.00
45763;BME280;37512;52.408;13.356;2023-02-04T00:27:43;70141.72;;;-146.77;100.00
45763;BME280;37512;52.408;13.356;2023-02-04T00:31:45;70141.72;;;-146.77;100.00
45763;BME280;37512;52.408;13.356;2023-02-04T00:35:47;70141.72;;;-146.77;100.00
45763;BME280;37512;52.408;13.356;2023-02-04T00:39:48;70141.72;;;-146.77;100.00
45763;BME280;37512;52.408;13.356;2023-02-04T00:43:50;70141.72;;;-146.77;100.00
45763;BME280;37512;52.408;13.356;2023-02-04T00:47:51;70141.72;;;-146.77;100.00
45763;BME280;37512;52.408;13.356;2023-02-04T00:51:53;70141.72;;;-146.77;100.00
45763;BME280;37512;52.408;13.356;2023-02-04T00:55:54;70141.72;;;-146.77;100.00
45763;BME280;37512;52.408;13.356;2023-02-04T00:59:56;70141.72;;;-146.77;100.00
45763;BME280;37512;52.408;13.356;2023-02-04T01:03:57;70141.72;;;-146.77;100.00
45763;BME280;37512;52.408;13.356;2023-02-04T01:07:58;70141.72;;;-146.77;100.00
45763;BME280;37512;52.408;13.356;2023-02-04T01:12:00;70141.72;;;-146.77;100.00
45763;BME280;37512;52.408;13.356;2023-02-04T01:16:01;70141.72;;;-146.77;100.00
45763;BME280;37512;52.408;13.356;2023-02-04T01:20:03;70141.72;;;-146.77;100.00
45763;BME280;37512;52.408;13.356;2023-02-04T01:24:05;70141.72;;;-146.77;100.00
45763;BME280;37512;52.408;13.356;2023-02-04T01:28:06;70141.72;;;-146.77;100.00
45763;BME280;37512;52.408;13.356;2023-02-04T01:32:08;70141.72;;;-146.77;100.00
45763;BME280;37512;52.408;13.356;2023-02-04T01:36:09;70141.72;;;-146.77;100.00
45763;BME280;37512;52.408;13.356;2023-02-04T01:40:11;70141.72;;;-146.77;100.00
45763;BME280;37512;52.408;13.356;2023-02-04T01:44:13;70141.72;;;-146.77;100.00
45763;BME280;37512;52.408;13.356;2023-02-04T01:48:15;70141.72;;;-146.77;100.00
45763;BME280;37512;52.408;13.356;2023-02-04T01:52:21;70141.72;;;-146.77;100.00
45763;BME280;37512;52.408;13.356;2023-02-04T01:56:24;70141.72;;;-146.77;100.00
45763;BME280;37512;52.408;13.356;2023-02-04T02:00:31;70141.72;;;-146.77;100.00
45763;BME280;37512;52.408;13.356;2023-02-04T02:04:33;70141.72;;;-146.77;100.00
45763;BME280;37512;52.408;13.356;2023-02-04T02:08:36;70141.72;;;-146.77;100.00
45763;BME280;37512;52.408;13.356;2023-02-04T02:12:38;70141.72;;;-146.77;100.00
45763;BME280;37512;52.408;13.356;2023-02-04T02:16:40;70141.72;;;-146.77;100.00
45763;BME280;37512;52.408;13.356;2023-02-04T02:20:43;70141.72;;;-146.77;100.00
45763;BME280;37512;52.408;13.356;2023-02-04T02:24:45;70141.72;;;-146.77;100.00
45763;BME280;37512;52.408;13.356;2023-02-04T02:28:48;70141.72;;;-146.77;100.00
45763;BME280;37512;52.408;13.356;2023-02-04T02:32:51;70141.72;;;-146.77;100.00
45763;BME280;37512;52.408;13.356;2023-02-04T02:36:53;70141.72;;;-146.77;100.00
45763;BME280;37512;52.408;13.356;2023-02-04T02:40:55;70141.72;;;-146.77;100.00
45763;BME280;37512;52.408;13.356;2023-02-04T02:44:57;70141.72;;;-146.77;100.00
45763;BME280;37512;52.408;13.356;2023-02-04T02:48:59;70141.72;;;-146.77;100.00
45763;BME280;37512;52.408;13.356;2023-02-04T02:53:01;70141.72;;;-146.77;100.00
45763;BME280;37512;52.408;13.356;2023-02-04T02:57:11;70141.72;;;-146.77;100.00
45763;BME280;37512;52.408;13.356;2023-02-04T03:01:13;70141.72;;;-146.77;100.00
45763;BME280;37512;52.408;13.356;2023-02-04T03:05:15;70141.72;;;-146.77;100.00
45763;BME280;37512;52.408;13.356;2023-02-04T03:09:17;70141.72;;;-146.77;100.00
45763;BME280;37512;52.408;13.356;2023-02-04T03:13:20;70141.72;;;-146.77;100.00
45763;BME280;37512;52.408;13.356;2023-02-04T03:17:21;70141.72;;;-146.77;100.00
45763;BME280;37512;52.408;13.356;2023-02-04T03:21:23;70141.72;;;-146.77;100.00
45763;BME280;37512;52.408;13.356;2023-02-04T03:25:25;70141.72;;;-146.77;100.00
45763;BME280;37512;52.408;13.356;2023-02-04T03:29:28;70141.72;;;-146.77;100.00
45763;BME280;37512;52.408;13.356;2023-02-04T03:33:30;70141.72;;;-146.77;100.00
45763;BME280;37512;52.408;13.356;2023-02-04T03:37:32;70141.72;;;-146.77;100.00
45763;BME280;37512;52.408;13.356;2023-02-04T03:41:33;70141.72;;;-146.77;100.00
45763;BME280;37512;52.408;13.356;2023-02-04T03:45:35;70141.72;;;-146.77;100.00
45763;BME280;37512;52.408;13.356;2023-02-04T03:49:46;70141.72;;;-146.77;100.00
45763;BME280;37512;52.408;13.356;2023-02-04T03:53:47;70141.72;;;-146.77;100.00
45763;BME280;37512;52.408;13.356;2023-02-04T03:57:48;70141.72;;;-146.77;100.00
45763;BME280;37512;52.408;13.356;2023-02-04T04:01:50;70141.72;;;-146.77;100.00
45763;BME280;37512;52.408;13.356;2023-02-04T04:05:52;70141.72;;;-146.77;100.00
45763;BME280;37512;52.408;13.356;2023-02-04T04:09:54;70141.72;;;-146.77;100.00
45763;BME280;37512;52.408;13.356;2023-02-04T04:13:55;70141.72;;;-146.77;100.00
45763;BME280;37512;52.408;13.356;2023-02-04T04:17:57;70141.72;;;-146.77;100.00
45763;BME280;37512;52.408;13.356;2023-02-04T04:21:58;70141.72;;;-146.77;100.00
45763;BME280;37512;52.408;13.356;2023-02-04T04:26:00;70141.72;;;-146.77;100.00
45763;BME280;37512;52.408;13.356;2023-02-04T04:30:02;70141.72;;;-146.77;100.00
45763;BME280;37512;52.408;13.356;2023-02-04T04:34:03;70141.72;;;-146.77;100.00
45763;BME280;37512;52.408;13.356;2023-02-04T04:38:05;70141.72;;;-146.77;100.00
45763;BME280;37512;52.408;13.356;2023-02-04T04:42:06;70141.72;;;-146.77;100.00
45763;BME280;37512;52.408;13.356;2023-02-04T04:46:08;70141.72;;;-146.77;100.00
45763;BME280;37512;52.408;13.356;2023-02-04T04:50:09;70141.72;;;-146.77;100.00
45763;BME280;37512;52.408;13.356;2023-02-04T04:54:11;70141.72;;;-146.77;100.00
45763;BME280;37512;52.408;13.356;2023-02-04T04:58:12;70141.72;;;-146.77;100.00
45763;BME280;37512;52.408;13.356;2023-02-04T05:02:14;70141.72;;;-146.77;100.00
45763;BME280;37512;52.408;13.356;2023-02-04T05:06:15;70141.72;;;-146.77;100.00
45763;BME280;37512;52.408;13.356;2023-02-04T05:10:17;70141.72;;;-146.77;100.00
45763;BME280;37512;52.408;13.356;2023-02-04T05:14:18;70141.72;;;-146.77;100.00
45763;BME280;37512;52.408;13.356;2023-02-04T05:18:20;70141.72;;;-146.77;100.00
45763;BME280;37512;52.408;13.356;2023-02-04T05:22:22;70141.72;;;-146.77;100.00
45763;BME280;37512;52.408;13.356;2023-02-04T05:26:23;70141.72;;;-146.77;100.00
45763;BME280;37512;52.408;13.356;2023-02-04T05:30:31;70141.72;;;-146.77;100.00
45763;BME280;37512;52.408;13.356;2023-02-04T05:34:33;70141.72;;;-146.77;100.00
45763;BME280;37512;52.408;13.356;2023-02-04T05:38:34;70141.72;;;-146.77;100.00
45763;BME280;37512;52.408;13.356;2023-02-04T05:42:36;70141.72;;;-146.77;100.00
45763;BME280;37512;52.408;13.356;2023-02-04T05:46:37;70141.72;;;-146.77;100.00
45763;BME280;37512;52.408;13.356;2023-02-04T05:50:39;70141.72;;;-146.77;100.00
45763;BME280;37512;52.408;13.356;2023-02-04T05:54:40;70141.72;;;-146.77;100.00
45763;BME280;37512;52.408;13.356;2023-02-04T05:58:42;70141.72;;;-146.77;100.00
45763;BME280;37512;52.408;13.356;2023-02-04T06:02:43;70141.72;;;-146.77;100.00
45763;BME280;37512;52.408;13.356;2023-02-04T06:06:45;70141.72;;;-146.77;100.00
45763;BME280;37512;52.408;13.356;2023-02-04T06:10:46;70141.72;;;-146.77;100.00
45763;BME280;37512;52.408;13.356;2023-02-04T06:14:48;70141.72;;;-146.77;100.00
45763;BME280;37512;52.408;13.356;2023-02-04T06:18:49;70141.72;;;-146.77;100.00
45763;BME280;37512;52.408;13.356;2023-02-04T06:22:51;70141.72;;;-146.77;100.00
45763;BME280;37512;52.408;13.356;2023-02-04T06:26:54;70141.72;;;-146.77;100.00
45763;BME280;37512;52.408;13.356;2023-02-04T06:30:56;70141.72;;;-146.77;100.00
45763;BME280;37512;52.408;13.356;2023-02-04T06:34:57;70141.72;;;-146.77;100.00
45763;BME280;37512;52.408;13.356;2023-02-04T06:38:59;70141.72;;;-146.77;100.00
45763;BME280;37512;52.408;13.356;2023-02-04T06:43:00;70141.72;;;-146.77;100.00
45763;BME280;37512;52.408;13.356;2023-02-04T06:47:04;70141.72;;;-146.77;100.00
45763;BME280;37512;52.408;13.356;2023-02-04T06:51:06;70141.72;;;-146.77;100.00
45763;BME280;37512;52.408;13.356;2023-02-04T06:55:08;70141.72;;;-146.77;100.00
45763;BME280;37512;52.408;13.356;2023-02-04T06:59:09;70141.72;;;-146.77;100.00
45763;BME280;37512;52.408;13.356;2023-02-04T07:03:11;70141.72;;;-146.77;100.00
45763;BME280;37512;52.408;13.356;2023-02-04T07:07:12;70141.72;;;-146.77;100.00
45763;BME280;37512;52.408;13.356;2023-02-04T07:11:14;70141.72;;;-146.77;100.00
45763;BME280;37512;52.408;13.356;2023-02-04T07:15:16;70141.72;;;-146.77;100.00
45763;BME280;37512;52.408;13.356;2023-02-04T07:19:17;70141.72;;;-146.77;100.00
45763;BME280;37512;52.408;13.356;2023-02-04T07:23:21;70141.72;;;-146.77;100.00
45763;BME280;37512;52.408;13.356;2023-02-04T07:27:24;70141.72;;;-146.77;100.00
45763;BME280;37512;52.408;13.356;2023-02-04T07:31:26;70141.72;;;-146.77;100.00
45763;BME280;37512;52.408;13.356;2023-02-04T07:35:27;70141.72;;;-146.77;100.00
45763;BME280;37512;52.408;13.356;2023-02-04T07:39:29;70141.72;;;-146.77;100.00
45763;BME280;37512;52.408;13.356;2023-02-04T07:43:30;70141.72;;;-146.77;100.00
45763;BME280;37512;52.408;13.356;2023-02-04T07:47:32;70141.72;;;-146.77;100.00
45763;BME280;37512;52.408;13.356;2023-02-04T07:51:33;70141.72;;;-146.77;100.00
45763;BME280;37512;52.408;13.356;2023-02-04T07:55:35;70141.72;;;-146.77;100.00
45763;BME280;37512;52.408;13.356;2023-02-04T07:59:37;70141.72;;;-146.77;100.00
45763;BME280;37512;52.408;13.356;2023-02-04T08:03:38;70141.72;;;-146.77;100.00
45763;BME280;37512;52.408;13.356;2023-02-04T08:07:42;70141.72;;;-146.77;100.00
45763;BME280;37512;52.408;13.356;2023-02-04T08:11:43;70141.72;;;-146.77;100.00
45763;BME280;37512;52.408;13.356;2023-02-04T08:15:45;70141.72;;;-146.77;100.00
45763;BME280;37512;52.408;13.356;2023-02-04T08:19:46;70141.72;;;-146.77;100.00
45763;BME280;37512;52.408;13.356;2023-02-04T08:23:48;70141.72;;;-146.77;100.00
45763;BME280;37512;52.408;13.356;2023-02-04T08:27:51;70141.72;;;-146.77;100.00
45763;BME280;37512;52.408;13.356;2023-02-04T08:31:52;70141.72;;;-146.77;100.00
45763;BME280;37512;52.408;13.356;2023-02-04T08:35:53;70141.72;;;-146.77;100.00
45763;BME280;37512;52.408;13.356;2023-02-04T08:39:55;70141.72;;;-146.77;100.00
45763;BME280;37512;52.408;13.356;2023-02-04T08:43:57;70141.72;;;-146.77;100.00
45763;BME280;37512;52.408;13.356;2023-02-04T08:47:58;70141.72;;;-146.77;100.00
45763;BME280;37512;52.408;13.356;2023-02-04T08:51:59;70141.72;;;-146.77;100.00
45763;BME280;37512;52.408;13.356;2023-02-04T08:56:03;70141.72;;;-146.77;100.00
45763;BME280;37512;52.408;13.356;2023-02-04T09:00:05;70141.72;;;-146.77;100.00
45763;BME280;37512;52.408;13.356;2023-02-04T09:04:06;70141.72;;;-146.77;100.00
45763;BME280;37512;52.408;13.356;2023-02-04T09:08:08;70141.72;;;-146.77;100.00
45763;BME280;37512;52.408;13.356;2023-02-04T09:12:10;70141.72;;;-146.77;100.00
45763;BME280;37512;52.408;13.356;2023-02-04T09:16:11;70141.72;;;-146.77;100.00
45763;BME280;37512;52.408;13.356;2023-02-04T09:20:13;70141.72;;;-146.77;100.00
45763;BME280;37512;52.408;13.356;2023-02-04T09:24:14;70141.72;;;-146.77;100.00
45763;BME280;37512;52.408;13.356;2023-02-04T09:28:16;70141.72;;;-146.77;100.00
45763;BME280;37512;52.408;13.356;2023-02-04T09:32:18;70141.72;;;-146.77;100.00
45763;BME280;37512;52.408;13.356;2023-02-04T09:36:19;70141.72;;;-146.77;100.00
45763;BME280;37512;52.408;13.356;2023-02-04T09:40:21;70141.72;;;-146.77;100.00
45763;BME280;37512;52.408;13.356;2023-02-04T09:44:25;70141.72;;;-146.77;100.00
45763;BME280;37512;52.408;13.356;2023-02-04T09:48:28;70141.72;;;-146.77;100.00
45763;BME280;37512;52.408;13.356;2023-02-04T09:52:29;70141.72;;;-146.77;100.00
45763;BME280;37512;52.408;13.356;2023-02-04T09:56:31;70141.72;;;-146.77;100.00
45763;BME280;37512;52.408;13.356;2023-02-04T10:00:33;70141.72;;;-146.77;100.00
45763;BME280;37512;52.408;13.356;2023-02-04T10:04:35;70141.72;;;-146.77;100.00
45763;BME280;37512;52.408;13.356;2023-02-04T10:08:38;70141.72;;;-146.77;100.00
45763;BME280;37512;52.408;13.356;2023-02-04T10:12:40;70141.72;;;-146.77;100.00
45763;BME280;37512;52.408;13.356;2023-02-04T10:16:42;70141.72;;;-146.77;100.00
45763;BME280;37512;52.408;13.356;2023-02-04T10:20:45;70141.72;;;-146.77;100.00
45763;BME280;37512;52.408;13.356;2023-02-04T10:24:47;70141.72;;;-146.77;100.00
45763;BME280;37512;52.408;13.356;2023-02-04T10:28:48;70141.72;;;-146.77;100.00
45763;BME280;37512;52.408;13.356;2023-02-04T10:32:51;70141.72;;;-146.77;100.00
45763;BME280;37512;52.408;13.356;2023-02-04T10:36:54;70141.72;;;-146.77;100.00
45763;BME280;37512;52.408;13.356;2023-02-04T10:41:02;70141.72;;;-146.77;100.00
45763;BME280;37512;52.408;13.356;2023-02-04T10:45:04;70141.72;;;-146.77;100.00
45763;BME280;37512;52.408;13.356;2023-02-04T10:49:23;70141.72;;;-146.77;100.00
45763;BME280;37512;52.408;13.356;2023-02-04T10:53:25;70141.72;;;-146.77;100.00
45763;BME280;37512;52.408;13.356;2023-02-04T10:57:47;70141.72;;;-146.77;100.00
45763;BME280;37512;52.408;13.356;2023-02-04T11:01:50;103121.31;;;7.85;60.63
45763;BME280;37512;52.408;13.356;2023-02-04T11:05:55;103123.84;;;7.77;61.58
45763;BME280;37512;52.408;13.356;2023-02-04T11:09:56;103118.19;;;7.58;62.45
45763;BME280;37512;52.408;13.356;2023-02-04T11:14:00;103126.38;;;7.23;62.08
45763;BME280;37512;52.408;13.356;2023-02-04T11:18:05;103132.41;;;6.40;63.55
45763;BME280;37512;52.408;13.356;2023-02-04T11:22:23;103130.69;;;5.72;65.32
45763;BME280;37512;52.408;13.356;2023-02-04T11:26:36;103134.25;;;5.62;68.17
45763;BME280;37512;52.408;13.356;2023-02-04T11:30:38;103137.13;;;5.10;68.82
45763;BME280;37512;52.408;13.356;2023-02-04T11:34:46;103151.91;;;5.61;71.13
45763;BME280;37512;52.408;13.356;2023-02-04T11:38:48;103146.34;;;5.41;67.73
45763;BME280;37512;52.408;13.356;2023-02-04T11:42:59;103146.97;;;5.63;66.15
45763;BME280;37512;52.408;13.356;2023-02-04T11:47:06;103159.91;;;5.68;65.02
45763;BME280;37512;52.408;13.356;2023-02-04T11:51:14;103164.63;;;5.05;66.27
45763;BME280;37512;52.408;13.356;2023-02-04T11:55:16;103168.25;;;5.15;66.40
45763;BME280;37512;52.408;13.356;2023-02-04T11:59:19;103162.94;;;5.61;64.08
45763;BME280;37512;52.408;13.356;2023-02-04T12:03:24;103163.34;;;5.22;67.01
45763;BME280;37512;52.408;13.356;2023-02-04T12:07:28;103168.09;;;4.85;69.50
45763;BME280;37512;52.408;13.356;2023-02-04T12:11:30;103159.13;;;4.57;73.22
45763;BME280;37512;52.408;13.356;2023-02-04T12:15:33;103163.72;;;4.46;71.50
45763;BME280;37512;52.408;13.356;2023-02-04T12:19:39;103162.88;;;4.08;72.34
45763;BME280;37512;52.408;13.356;2023-02-04T12:23:40;103171.38;;;4.07;71.41
45763;BME280;37512;52.408;13.356;2023-02-04T12:27:44;103171.63;;;4.37;68.71
45763;BME280;37512;52.408;13.356;2023-02-04T12:31:49;103180.25;;;4.94;64.18
45763;BME280;37512;52.408;13.356;2023-02-04T12:35:51;103180.28;;;5.62;61.13
45763;BME280;37512;52.408;13.356;2023-02-04T12:39:52;103181.50;;;5.18;60.24
45763;BME280;37512;52.408;13.356;2023-02-04T12:43:54;103182.63;;;5.28;60.94
45763;BME280;37512;52.408;13.356;2023-02-04T12:47:55;103186.66;;;4.62;63.34
45763;BME280;37512;52.408;13.356;2023-02-04T12:51:57;103189.38;;;4.57;64.52
45763;BME280;37512;52.408;13.356;2023-02-04T12:56:02;103194.88;;;4.99;65.33
45763;BME280;37512;52.408;13.356;2023-02-04T13:00:04;103200.38;;;5.57;60.44
45763;BME280;37512;52.408;13.356;2023-02-04T13:04:06;103189.97;;;5.90;56.35
45763;BME280;37512;52.408;13.356;2023-02-04T13:08:07;103197.81;;;5.40;57.38
45763;BME280;37512;52.408;13.356;2023-02-04T13:12:09;103201.00;;;5.12;57.92
45763;BME280;37512;52.408;13.356;2023-02-04T13:16:13;103212.94;;;4.85;59.26
45763;BME280;37512;52.408;13.356;2023-02-04T13:20:15;103210.63;;;5.09;59.46
45763;BME280;37512;52.408;13.356;2023-02-04T13:24:17;103206.34;;;5.34;59.76
45763;BME280;37512;52.408;13.356;2023-02-04T13:28:18;103210.41;;;7.02;53.38
45763;BME280;37512;52.408;13.356;2023-02-04T13:32:20;103215.00;;;7.32;50.75
45763;BME280;37512;52.408;13.356;2023-02-04T13:36:21;103217.44;;;7.49;49.80
45763;BME280;37512;52.408;13.356;2023-02-04T13:40:23;103214.63;;;8.77;46.36
45763;BME280;37512;52.408;13.356;2023-02-04T13:44:24;103210.19;;;10.62;43.06
45763;BME280;37512;52.408;13.356;2023-02-04T13:48:26;103217.34;;;11.51;40.08
45763;BME280;37512;52.408;13.356;2023-02-04T13:52:27;103212.13;;;9.29;43.39
45763;BME280;37512;52.408;13.356;2023-02-04T13:56:29;103217.72;;;10.24;41.49
45763;BME280;37512;52.408;13.356;2023-02-04T14:00:33;103220.56;;;10.57;40.68
45763;BME280;37512;52.408;13.356;2023-02-04T14:04:35;103230.59;;;10.39;41.33
45763;BME280;37512;52.408;13.356;2023-02-04T14:08:37;103227.69;;;9.49;43.89
45763;BME280;37512;52.408;13.356;2023-02-04T14:12:38;103238.91;;;10.01;43.64
45763;BME280;37512;52.408;13.356;2023-02-04T14:16:42;103237.97;;;11.23;41.80
45763;BME280;37512;52.408;13.356;2023-02-04T14:20:43;103232.53;;;9.38;45.19
45763;BME280;37512;52.408;13.356;2023-02-04T14:24:45;103243.69;;;8.01;45.31
45763;BME280;37512;52.408;13.356;2023-02-04T14:28:47;103252.69;;;6.20;48.25
45763;BME280;37512;52.408;13.356;2023-02-04T14:32:49;103254.75;;;5.87;49.94
45763;BME280;37512;52.408;13.356;2023-02-04T14:36:51;103259.91;;;5.63;50.99
45763;BME280;37512;52.408;13.356;2023-02-04T14:40:52;103265.50;;;5.26;51.12
45763;BME280;37512;52.408;13.356;2023-02-04T14:44:54;103258.13;;;4.94;51.86
45763;BME280;37512;52.408;13.356;2023-02-04T14:48:55;103272.69;;;4.25;53.90
45763;BME280;37512;52.408;13.356;2023-02-04T14:52:57;103264.13;;;4.22;54.82
45763;BME280;37512;52.408;13.356;2023-02-04T14:56:58;103263.56;;;3.92;56.45
45763;BME280;37512;52.408;13.356;2023-02-04T15:01:00;103267.16;;;4.20;61.21
45763;BME280;37512;52.408;13.356;2023-02-04T15:05:02;103283.44;;;3.77;60.95
45763;BME280;37512;52.408;13.356;2023-02-04T15:09:04;103276.34;;;4.63;60.60
45763;BME280;37512;52.408;13.356;2023-02-04T15:13:05;103279.59;;;4.28;59.64
45763;BME280;37512;52.408;13.356;2023-02-04T15:17:07;103275.78;;;4.61;58.91
45763;BME280;37512;52.408;13.356;2023-02-04T15:21:08;103271.16;;;3.85;60.06
45763;BME280;37512;52.408;13.356;2023-02-04T15:25:11;103276.94;;;3.84;60.06
45763;BME280;37512;52.408;13.356;2023-02-04T15:29:13;103288.91;;;3.33;61.17
45763;BME280;37512;52.408;13.356;2023-02-04T15:33:14;103298.25;;;3.16;61.83
45763;BME280;37512;52.408;13.356;2023-02-04T15:37:17;103295.00;;;3.19;60.15
45763;BME280;37512;52.408;13.356;2023-02-04T15:41:20;103297.00;;;3.06;59.58
45763;BME280;37512;52.408;13.356;2023-02-04T15:45:23;103298.53;;;2.97;59.46
45763;BME280;37512;52.408;13.356;2023-02-04T15:49:24;103297.75;;;2.85;60.24
45763;BME280;37512;52.408;13.356;2023-02-04T15:53:27;103292.94;;;2.75;60.32
45763;BME280;37512;52.408;13.356;2023-02-04T15:57:32;103293.19;;;2.73;62.75
45763;BME280;37512;52.408;13.356;2023-02-04T16:01:33;103290.63;;;2.84;61.90
45763;BME280;37512;52.408;13.356;2023-02-04T16:05:35;103299.25;;;2.76;61.93
45763;BME280;37512;52.408;13.356;2023-02-04T16:09:36;103302.00;;;2.76;61.89
45763;BME280;37512;52.408;13.356;2023-02-04T16:13:38;103298.34;;;2.70;62.74
45763;BME280;37512;52.408;13.356;2023-02-04T16:17:39;103307.13;;;2.55;64.10
45763;BME280;37512;52.408;13.356;2023-02-04T16:21:44;103307.63;;;2.52;66.02
45763;BME280;37512;52.408;13.356;2023-02-04T16:25:45;103311.19;;;2.53;65.82
45763;BME280;37512;52.408;13.356;2023-02-04T16:29:47;103308.00;;;2.27;68.00
45763;BME280;37512;52.408;13.356;2023-02-04T16:33:48;103317.94;;;2.16;67.47
45763;BME280;37512;52.408;13.356;2023-02-04T16:37:50;103318.56;;;2.06;66.18
45763;BME280;37512;52.408;13.356;2023-02-04T16:41:51;103316.19;;;1.98;67.54
45763;BME280;37512;52.408;13.356;2023-02-04T16:45:53;103318.97;;;1.86;69.21
45763;BME280;37512;52.408;13.356;2023-02-04T16:49:55;103318.41;;;1.73;68.90
45763;BME280;37512;52.408;13.356;2023-02-04T16:54:01;103325.47;;;1.57;71.27
45763;BME280;37512;52.408;13.356;2023-02-04T16:58:02;103316.19;;;1.58;71.03
45763;BME280;37512;52.408;13.356;2023-02-04T17:02:04;103327.41;;;1.44;71.63
45763;BME280;37512;52.408;13.356;2023-02-04T17:06:05;103336.94;;;1.30;70.32
45763;BME280;37512;52.408;13.356;2023-02-04T17:10:07;103335.03;;;1.31;75.13
45763;BME280;37512;52.408;13.356;2023-02-04T17:14:11;103344.53;;;1.28;72.01
45763;BME280;37512;52.408;13.356;2023-02-04T17:18:15;103347.75;;;1.25;69.96
45763;BME280;37512;52.408;13.356;2023-02-04T17:22:17;103347.75;;;1.13;70.73
45763;BME280;37512;52.408;13.356;2023-02-04T17:26:19;103357.25;;;1.11;73.33
45763;BME280;37512;52.408;13.356;2023-02-04T17:30:21;103367.00;;;1.07;72.96
45763;BME280;37512;52.408;13.356;2023-02-04T17:34:22;103366.28;;;1.11;75.71
45763;BME280;37512;52.408;13.356;2023-02-04T17:38:24;103370.56;;;1.07;75.28
45763;BME280;37512;52.408;13.356;2023-02-04T17:42:28;103374.00;;;1.02;77.24
45763;BME280;37512;52.408;13.356;2023-02-04T17:46:30;103377.09;;;0.94;77.43
45763;BME280;37512;52.408;13.356;2023-02-04T17:50:32;103386.09;;;0.83;77.95
45763;BME280;37512;52.408;13.356;2023-02-04T17:54:41;103387.75;;;0.84;78.55
45763;BME280;37512;52.408;13.356;2023-02-04T17:58:43;103385.81;;;0.73;77.74
45763;BME280;37512;52.408;13.356;2023-02-04T18:02:46;103382.72;;;0.69;80.77
45763;BME280;37512;52.408;13.356;2023-02-04T18:06:50;103373.94;;;0.37;81.75
45763;BME280;37512;52.408;13.356;2023-02-04T18:10:53;103379.81;;;0.52;79.21
45763;BME280;37512;52.408;13.356;2023-02-04T18:14:57;103379.97;;;0.57;80.80
45763;BME280;37512;52.408;13.356;2023-02-04T18:19:26;103378.25;;;0.45;82.19
45763;BME280;37512;52.408;13.356;2023-02-04T18:23:31;103389.72;;;0.35;84.28
45763;BME280;37512;52.408;13.356;2023-02-04T18:27:33;103380.53;;;0.29;84.02
45763;BME280;37512;52.408;13.356;2023-02-04T18:31:48;103387.91;;;0.29;85.36
45763;BME280;37512;52.408;13.356;2023-02-04T18:35:59;103399.31;;;0.07;86.47
45763;BME280;37512;52.408;13.356;2023-02-04T18:44:35;103407.28;;;-0.10;88.09
45763;BME280;37512;52.408;13.356;2023-02-04T18:49:01;103417.97;;;-0.08;89.69
45763;BME280;37512;52.408;13.356;2023-02-04T18:57:52;103420.25;;;-0.05;89.33
45763;BME280;37512;52.408;13.356;2023-02-04T19:01:46;103413.19;;;-0.13;89.46
45763;BME280;37512;52.408;13.356;2023-02-04T19:05:49;103419.34;;;-0.17;90.09
45763;BME280;37512;52.408;13.356;2023-02-04T19:09:51;103421.53;;;-0.26;88.26
45763;BME280;37512;52.408;13.356;2023-02-04T19:13:54;103426.84;;;-0.31;87.81
45763;BME280;37512;52.408;13.356;2023-02-04T19:18:03;103431.09;;;-0.60;89.45
45763;BME280;37512;52.408;13.356;2023-02-04T19:26:53;103437.25;;;-0.47;90.29
45763;BME280;37512;52.408;13.356;2023-02-04T19:31:01;103440.75;;;-0.65;90.00
45763;BME280;37512;52.408;13.356;2023-02-04T19:35:17;103445.28;;;-0.52;89.97
45763;BME280;37512;52.408;13.356;2023-02-04T19:39:34;103461.03;;;-0.79;91.80
45763;BME280;37512;52.408;13.356;2023-02-04T19:43:39;103454.75;;;-0.54;95.63
45763;BME280;37512;52.408;13.356;2023-02-04T19:47:42;103449.03;;;-0.78;91.19
45763;BME280;37512;52.408;13.356;2023-02-04T19:51:48;103454.34;;;-0.83;89.58
45763;BME280;37512;52.408;13.356;2023-02-04T19:55:52;103456.03;;;-0.82;87.48
45763;BME280;37512;52.408;13.356;2023-02-04T19:59:55;103461.03;;;-0.79;88.38
45763;BME280;37512;52.408;13.356;2023-02-04T20:03:57;103469.03;;;-0.84;86.47
45763;BME280;37512;52.408;13.356;2023-02-04T20:12:27;103471.22;;;-0.99;85.38
45763;BME280;37512;52.408;13.356;2023-02-04T20:20:37;103465.31;;;-0.96;86.95
45763;BME280;37512;52.408;13.356;2023-02-04T20:24:41;103469.19;;;-1.11;85.77
45763;BME280;37512;52.408;13.356;2023-02-04T20:28:43;103473.66;;;-1.16;87.43
45763;BME280;37512;52.408;13.356;2023-02-04T20:32:51;103475.09;;;-1.14;87.04
45763;BME280;37512;52.408;13.356;2023-02-04T20:36:53;103475.75;;;-1.18;86.85
45763;BME280;37512;52.408;13.356;2023-02-04T20:40:55;103479.66;;;-1.08;89.59
45763;BME280;37512;52.408;13.356;2023-02-04T20:49:39;103488.78;;;-1.27;88.21
45763;BME280;37512;52.408;13.356;2023-02-04T20:53:54;103491.59;;;-1.47;87.99
45763;BME280;37512;52.408;13.356;2023-02-04T21:02:16;103495.06;;;-1.27;89.12
45763;BME280;37512;52.408;13.356;2023-02-04T21:06:27;103487.75;;;-1.33;86.65
45763;BME280;37512;52.408;13.356;2023-02-04T21:10:29;103496.16;;;-1.34;87.12
45763;BME280;37512;52.408;13.356;2023-02-04T21:14:30;103495.78;;;-1.44;92.04